createdAt,value
2022-07-30T04:24:20.266Z,15.10
2022-07-30T04:29:24.791Z,15.20
2022-07-30T04:34:28.796Z,15.10
2022-07-30T04:39:31.762Z,15.00
2022-07-30T04:44:34.410Z,15.00
2022-07-30T04:49:55.272Z,15.00
2022-07-30T04:55:04.617Z,15.10
2022-07-30T05:00:08.291Z,15.10
2022-07-30T05:05:15.940Z,15.10
2022-07-30T05:10:19.844Z,15.30
2022-07-30T05:15:21.991Z,15.50
2022-07-30T05:20:31.338Z,15.50
2022-07-30T05:25:55.174Z,15.50
2022-07-30T05:31:11.201Z,15.70
2022-07-30T05:36:15.160Z,15.60
2022-07-30T05:41:19.130Z,15.60
2022-07-30T05:46:51.886Z,15.70
2022-07-30T05:51:54.429Z,15.60
2022-07-30T05:56:57.202Z,15.80
2022-07-30T06:02:07.841Z,15.90
2022-07-30T06:07:29.770Z,15.70
2022-07-30T06:12:33.407Z,15.60
2022-07-30T06:17:52.003Z,15.60
2022-07-30T06:23:13.598Z,15.60
2022-07-30T06:28:38.523Z,15.70
2022-07-30T06:33:49.239Z,15.60
2022-07-30T06:38:51.265Z,15.70
2022-07-30T06:43:59.760Z,15.90
2022-07-30T06:49:40.437Z,16.20
2022-07-30T06:54:45.014Z,16.30
2022-07-30T06:59:57.604Z,16.70
2022-07-30T07:05:22.105Z,16.50
2022-07-30T07:10:25.761Z,16.50
2022-07-30T07:15:40.263Z,16.60
2022-07-30T07:20:46.732Z,16.60
2022-07-30T07:25:48.840Z,17.20
2022-07-30T07:30:51.835Z,18.00
2022-07-30T07:35:55.172Z,18.80
2022-07-30T07:41:02.448Z,18.80
2022-07-30T07:46:05.359Z,18.30
2022-07-30T07:51:09.633Z,17.90
2022-07-30T07:56:11.978Z,17.90
2022-07-30T08:01:16.379Z,18.40
2022-07-30T08:06:44.511Z,19.20
2022-07-30T08:12:15.300Z,19.80
2022-07-30T08:17:44.826Z,19.70
2022-07-30T08:22:51.529Z,20.10
2022-07-30T08:27:54.126Z,19.90
2022-07-30T08:32:58.006Z,20.40
2022-07-30T08:38:00.381Z,20.90
2022-07-30T08:43:06.597Z,21.50
2022-07-30T08:48:14.923Z,21.10
2022-07-30T08:53:21.454Z,21.40
2022-07-30T08:58:37.083Z,23.50
2022-07-30T09:03:44.455Z,23.90
2022-07-30T09:08:46.794Z,24.90
2022-07-30T09:13:50.823Z,24.90
2022-07-30T09:18:54.718Z,25.50
2022-07-30T09:23:59.053Z,24.70
2022-07-30T09:29:24.461Z,23.90
2022-07-30T09:34:48.052Z,25.20
2022-07-30T09:40:18.642Z,25.40
2022-07-30T09:45:57.844Z,25.80
2022-07-30T09:51:00.604Z,26.80
2022-07-30T09:56:29.989Z,25.60
2022-07-30T10:02:00.936Z,24.90
2022-07-30T10:07:24.813Z,24.50
2022-07-30T10:12:34.520Z,23.90
2022-07-30T10:17:38.722Z,25.20
2022-07-30T10:23:09.301Z,24.50
2022-07-30T10:28:13.097Z,27.40
2022-07-30T10:33:35.145Z,26.90
2022-07-30T10:38:41.443Z,27.30
2022-07-30T10:44:17.221Z,28.60
2022-07-30T10:49:19.627Z,28.20
2022-07-30T10:54:33.858Z,26.20
2022-07-30T10:59:55.586Z,24.80
2022-07-30T11:05:18.113Z,23.30
2022-07-30T11:10:41.205Z,24.40
2022-07-30T11:16:00.103Z,25.60
2022-07-30T11:21:22.694Z,25.50
2022-07-30T11:26:41.713Z,24.50
2022-07-30T11:31:56.957Z,24.60
2022-07-30T11:37:21.802Z,24.50
2022-07-30T11:42:37.621Z,24.40
2022-07-30T11:47:39.914Z,24.90
2022-07-30T11:52:42.030Z,24.90
2022-07-30T11:57:45.611Z,25.60
2022-07-30T12:07:59.197Z,25.00
2022-07-30T12:13:16.286Z,25.30
2022-07-30T12:18:28.307Z,25.60
2022-07-30T12:23:33.435Z,25.10
2022-07-30T12:28:36.326Z,23.90
2022-07-30T12:33:42.145Z,23.00
2022-07-30T12:38:48.899Z,22.90
2022-07-30T12:43:53.010Z,22.70
2022-07-30T12:49:02.831Z,24.00
2022-07-30T12:54:21.143Z,25.10
2022-07-30T12:59:23.530Z,25.10
2022-07-30T13:04:26.828Z,24.50
2022-07-30T13:09:28.794Z,24.10
2022-07-30T13:14:31.557Z,25.10
2022-07-30T13:19:33.531Z,25.30
2022-07-30T13:24:35.501Z,23.50
2022-07-30T13:29:37.455Z,23.20
2022-07-30T13:34:41.578Z,22.90
2022-07-30T13:39:43.547Z,22.70
2022-07-30T13:44:45.539Z,22.10
2022-07-30T13:49:50.919Z,21.20
2022-07-30T13:54:53.767Z,20.60
2022-07-30T13:59:55.704Z,20.70
2022-07-30T14:04:57.851Z,22.20
2022-07-30T14:09:59.827Z,23.00
2022-07-30T14:15:02.288Z,23.10
2022-07-30T14:20:05.453Z,23.20
2022-07-30T14:25:08.532Z,23.60
2022-07-30T14:30:11.250Z,24.40
2022-07-30T14:35:13.265Z,25.10
2022-07-30T14:40:15.312Z,23.90
2022-07-30T14:45:17.360Z,22.70
2022-07-30T14:50:19.582Z,22.30
2022-07-30T14:55:21.662Z,22.00
2022-07-30T15:00:24.288Z,21.80
2022-07-30T15:05:26.746Z,21.80
2022-07-30T15:10:28.697Z,21.80
2022-07-30T15:15:35.177Z,21.80
2022-07-30T15:20:40.576Z,21.70
2022-07-30T15:25:42.805Z,21.50
2022-07-30T15:30:44.919Z,21.20
2022-07-30T15:35:46.921Z,21.10
2022-07-30T15:40:48.973Z,21.00
2022-07-30T15:45:55.740Z,20.80
2022-07-30T15:51:03.848Z,20.70
2022-07-30T15:56:06.291Z,20.40
2022-07-30T16:01:08.707Z,19.60
2022-07-30T16:06:11.068Z,19.00
2022-07-30T16:11:12.993Z,18.70
2022-07-30T16:16:15.411Z,18.60
2022-07-30T16:21:18.016Z,18.70
2022-07-30T16:26:20.897Z,18.70
2022-07-30T16:31:23.434Z,18.70
2022-07-30T16:36:25.418Z,18.60
2022-07-30T16:41:27.796Z,18.60
2022-07-30T16:46:29.842Z,18.70
2022-07-30T16:51:31.809Z,18.70
2022-07-30T16:56:33.925Z,18.60
2022-07-30T17:01:36.076Z,18.80
2022-07-30T17:06:39.952Z,19.00
2022-07-30T17:11:47.638Z,19.10
2022-07-30T17:16:54.354Z,19.20
2022-07-30T17:21:56.288Z,19.20
2022-07-30T17:26:58.238Z,19.00
2022-07-30T17:32:00.608Z,18.80
2022-07-30T17:37:02.875Z,18.70
2022-07-30T17:42:05.656Z,18.60
2022-07-30T17:47:14.360Z,18.60
2022-07-30T17:52:16.820Z,18.50
2022-07-30T17:57:18.802Z,18.40
2022-07-30T18:02:24.049Z,18.40
2022-07-30T18:07:29.705Z,18.40
2022-07-30T18:12:31.682Z,18.50
2022-07-30T18:17:34.397Z,18.50
2022-07-30T18:22:36.297Z,18.40
2022-07-30T18:27:38.401Z,18.30
2022-07-30T18:32:40.435Z,18.20
2022-07-30T18:37:44.026Z,18.20
2022-07-30T18:42:46.651Z,18.10
2022-07-30T18:47:49.120Z,18.10
2022-07-30T18:52:51.481Z,18.00
2022-07-30T18:57:53.445Z,17.80
2022-07-30T19:02:55.480Z,17.60
2022-07-30T19:07:58.677Z,17.40
2022-07-30T19:13:01.458Z,17.20
2022-07-30T19:18:03.586Z,17.10
2022-07-30T19:23:12.293Z,17.00
2022-07-30T19:28:17.773Z,17.00
2022-07-30T19:33:19.893Z,17.00
2022-07-30T19:38:24.078Z,17.00
2022-07-30T19:43:26.485Z,16.90
2022-07-30T19:48:31.453Z,16.90
2022-07-30T19:53:34.658Z,16.90
2022-07-30T19:58:36.756Z,16.80
2022-07-30T20:03:39.644Z,16.80
2022-07-30T20:08:44.928Z,16.70
2022-07-30T20:13:49.180Z,16.70
2022-07-30T20:18:51.542Z,16.70
2022-07-30T20:23:54.545Z,16.60
